Time;durP1;ratioP1;P1;durP2;ratioP2;P2;SDS_P1;SDS_P2;PMS_P1;PMS_P2;Temp;Humidity;BMP_temperature;BMP_pressure;BME280_temperature;BME280_humidity;BME280_pressure;Samples;Min_cycle;Max_cycle;Signal;HPM_P1;HPM_P2
2023/07/10 00:01:46;;;;;;;36.25;23.10;;;;;;;23.42;100.00;100907.09;8336541;28;20037;-61
2023/07/10 00:05:47;;;;;;;38.40;23.65;;;;;;;23.51;100.00;100914.06;8336240;28;20043;-62
2023/07/10 00:09:47;;;;;;;36.33;22.42;;;;;;;23.43;100.00;100913.47;8332848;28;20136;-62
2023/07/10 00:13:48;;;;;;;43.00;23.33;;;;;;;23.49;100.00;100913.47;8335265;28;20110;-62
2023/07/10 00:17:51;;;;;;;39.22;22.75;;;;;;;23.39;100.00;100912.19;8332676;28;20049;-62
2023/07/10 00:21:52;;;;;;;36.70;22.70;;;;;;;23.40;100.00;100916.66;8334056;28;20038;-62
2023/07/10 00:25:52;;;;;;;34.78;21.92;;;;;;;23.43;100.00;100921.75;8334214;28;20059;-62
2023/07/10 00:29:53;;;;;;;34.35;21.27;;;;;;;23.37;100.00;100919.84;8335336;28;20045;-62
2023/07/10 00:33:54;;;;;;;38.00;22.85;;;;;;;23.38;100.00;100910.47;8328115;28;20041;-62
2023/07/10 00:38:02;;;;;;;35.13;22.33;;;;;;;23.43;100.00;100902.41;8334312;28;20045;-62
2023/07/10 00:42:12;;;;;;;33.05;22.13;;;;;;;23.45;100.00;100905.81;8347197;28;20069;-62
2023/07/10 00:46:24;;;;;;;35.72;22.77;;;;;;;23.41;100.00;100912.81;8325769;28;20042;-62
2023/07/10 00:50:32;;;;;;;40.03;22.27;;;;;;;23.43;100.00;100918.97;8325604;28;20045;-62
2023/07/10 00:54:35;;;;;;;38.30;24.15;;;;;;;23.40;100.00;100925.78;8311961;28;20037;-62
2023/07/10 00:58:39;;;;;;;34.08;23.25;;;;;;;23.35;100.00;100928.31;8309866;28;20050;-61
2023/07/10 01:02:40;;;;;;;39.30;22.00;;;;;;;23.34;100.00;100920.25;8312955;28;20452;-62
2023/07/10 01:06:40;;;;;;;36.45;21.58;;;;;;;23.37;100.00;100919.84;8310534;28;20404;-62
2023/07/10 01:10:41;;;;;;;29.70;20.77;;;;;;;23.35;100.00;100927.47;8308515;28;20038;-62
2023/07/10 01:14:41;;;;;;;30.00;21.60;;;;;;;23.34;100.00;100920.25;8309402;28;20128;-62
2023/07/10 01:18:42;;;;;;;32.25;19.92;;;;;;;23.30;100.00;100924.53;8309380;28;20065;-61
2023/07/10 01:22:42;;;;;;;31.95;19.88;;;;;;;23.26;100.00;100923.25;8311871;28;20076;-62
2023/07/10 01:26:43;;;;;;;29.92;19.00;;;;;;;23.10;100.00;100925.34;8309092;28;20081;-62
2023/07/10 01:30:45;;;;;;;33.08;20.83;;;;;;;23.04;100.00;100922.56;8311042;28;20034;-62
2023/07/10 01:34:56;;;;;;;26.17;19.55;;;;;;;22.95;100.00;100924.69;8306837;28;20041;-62
2023/07/10 01:43:29;;;;;;;33.97;22.95;;;;;;;22.81;100.00;100934.00;8345121;27;20433;-62
2023/07/10 01:47:29;;;;;;;39.63;22.90;;;;;;;22.79;100.00;100941.66;8352148;28;20125;-62
2023/07/10 01:51:30;;;;;;;35.90;22.00;;;;;;;22.78;100.00;100942.69;8351422;28;20029;-62
2023/07/10 01:55:38;;;;;;;40.92;26.65;;;;;;;22.83;100.00;100940.16;8351774;28;20052;-62
2023/07/10 01:59:39;;;;;;;41.03;26.38;;;;;;;22.82;100.00;100941.22;8351119;28;20033;-62
2023/07/10 02:03:39;;;;;;;41.92;25.90;;;;;;;22.91;100.00;100939.94;8351315;28;20128;-61
2023/07/10 02:07:39;;;;;;;34.97;24.08;;;;;;;22.85;100.00;100950.97;8351303;28;20033;-61
2023/07/10 02:11:40;;;;;;;40.75;25.80;;;;;;;22.76;100.00;100961.38;8350622;28;20495;-61
2023/07/10 02:15:40;;;;;;;38.35;25.95;;;;;;;22.73;100.00;100960.94;8347239;28;20524;-61
2023/07/10 02:19:41;;;;;;;40.10;24.70;;;;;;;22.72;100.00;100964.75;8350349;28;20103;-62
2023/07/10 02:23:41;;;;;;;32.58;22.77;;;;;;;22.67;100.00;100964.50;8349108;28;20052;-61
2023/07/10 02:27:42;;;;;;;37.88;24.27;;;;;;;22.65;100.00;100975.75;8349554;28;20083;-61
2023/07/10 02:31:42;;;;;;;34.95;23.35;;;;;;;22.55;100.00;100978.06;8349944;28;20503;-62
2023/07/10 02:35:43;;;;;;;38.00;24.15;;;;;;;22.48;100.00;100982.63;8349654;28;20044;-62
2023/07/10 02:39:43;;;;;;;40.65;25.05;;;;;;;22.48;100.00;100984.56;8349584;28;20045;-61
2023/07/10 02:43:44;;;;;;;35.15;24.05;;;;;;;22.58;100.00;100985.91;8350338;28;20041;-62
2023/07/10 02:47:45;;;;;;;37.63;22.90;;;;;;;22.54;100.00;100989.28;8349416;28;20037;-61
2023/07/10 02:51:45;;;;;;;41.35;25.70;;;;;;;22.51;100.00;100990.53;8343743;28;20503;-62
2023/07/10 02:55:46;;;;;;;34.88;23.35;;;;;;;22.56;100.00;100996.28;8327101;28;20485;-62
2023/07/10 02:59:46;;;;;;;39.72;23.35;;;;;;;22.55;100.00;101000.13;8324694;28;20041;-62
2023/07/10 03:03:47;;;;;;;36.42;21.77;;;;;;;22.49;100.00;101000.91;8326453;28;20128;-62
2023/07/10 03:07:47;;;;;;;35.78;22.27;;;;;;;22.47;100.00;100994.72;8325294;28;20090;-61
2023/07/10 03:11:48;;;;;;;36.25;22.77;;;;;;;22.41;100.00;100991.94;8326182;28;20049;-62
2023/07/10 03:16:11;;;;;;;33.50;21.02;;;;;;;22.37;100.00;100977.75;8327431;28;20333;-61
2023/07/10 03:20:11;;;;;;;37.10;20.97;;;;;;;22.42;100.00;100980.72;8324100;28;20052;-62
2023/07/10 03:24:12;;;;;;;32.90;21.15;;;;;;;22.39;100.00;100983.91;8325889;28;20037;-62
2023/07/10 03:28:12;;;;;;;29.85;19.38;;;;;;;22.34;100.00;100978.16;8325440;28;20037;-62
2023/07/10 03:32:13;;;;;;;35.33;19.85;;;;;;;22.33;100.00;100976.47;8322131;28;20037;-62
2023/07/10 03:36:14;;;;;;;34.80;19.55;;;;;;;22.40;100.00;100970.97;8325505;28;20049;-61
2023/07/10 03:40:14;;;;;;;30.85;18.35;;;;;;;22.38;100.00;100984.94;8325936;28;20089;-62
2023/07/10 03:44:15;;;;;;;30.33;19.05;;;;;;;22.32;100.00;100977.50;8326361;28;20473;-62
2023/07/10 03:48:15;;;;;;;32.35;19.15;;;;;;;22.22;100.00;100979.78;8326303;28;20040;-62
2023/07/10 03:52:16;;;;;;;30.35;18.20;;;;;;;22.27;100.00;100980.03;8325519;28;20087;-62
2023/07/10 03:56:16;;;;;;;28.38;17.05;;;;;;;22.22;100.00;100989.94;8326223;28;20438;-62
2023/07/10 04:00:17;;;;;;;28.73;15.77;;;;;;;22.21;100.00;100994.63;8322841;28;20083;-62
2023/07/10 04:04:17;;;;;;;28.15;15.88;;;;;;;22.04;100.00;101017.19;8315798;28;20131;-62
2023/07/10 04:08:20;;;;;;;25.83;12.45;;;;;;;21.90;100.00;101021.78;8321850;28;20042;-62
2023/07/10 04:12:21;;;;;;;19.63;11.13;;;;;;;21.74;100.00;101030.31;8321672;28;20163;-62
2023/07/10 04:16:24;;;;;;;28.50;12.23;;;;;;;21.61;100.00;101029.31;8320344;28;20041;-62
2023/07/10 04:20:25;;;;;;;22.50;10.10;;;;;;;21.54;100.00;101037.56;8322935;28;20124;-62
2023/07/10 04:24:25;;;;;;;28.52;10.95;;;;;;;21.47;100.00;101050.38;8325052;28;20276;-62
2023/07/10 04:28:26;;;;;;;20.10;8.82;;;;;;;21.46;100.00;101054.19;8346719;28;20048;-62
2023/07/10 04:32:26;;;;;;;14.48;7.07;;;;;;;21.38;100.00;101059.84;8323522;28;20045;-62
2023/07/10 04:36:27;;;;;;;20.88;6.78;;;;;;;21.32;100.00;101060.63;8324637;28;20037;-62
2023/07/10 04:40:27;;;;;;;12.48;6.90;;;;;;;21.42;100.00;101061.16;8319607;28;20041;-62
2023/07/10 04:44:28;;;;;;;15.63;7.22;;;;;;;21.54;100.00;101062.31;8324667;28;20592;-62
2023/07/10 04:48:29;;;;;;;20.75;7.13;;;;;;;21.48;100.00;101051.25;8324703;28;20041;-62
2023/07/10 04:52:30;;;;;;;17.35;7.30;;;;;;;21.56;100.00;101071.22;8323302;28;20087;-62
2023/07/10 04:56:30;;;;;;;17.67;7.72;;;;;;;21.54;100.00;101073.31;8324217;28;20073;-62
2023/07/10 05:00:31;;;;;;;21.20;7.38;;;;;;;21.72;100.00;101064.56;8318920;28;20407;-62
2023/07/10 05:04:31;;;;;;;19.27;7.32;;;;;;;21.74;100.00;101074.38;8317916;28;20037;-60
2023/07/10 05:08:31;;;;;;;14.98;6.82;;;;;;;21.75;100.00;101086.25;8320758;28;20373;-61
2023/07/10 05:12:32;;;;;;;13.38;6.32;;;;;;;21.72;100.00;101081.09;8320118;28;20534;-61
2023/07/10 05:16:33;;;;;;;23.90;9.00;;;;;;;21.85;100.00;101083.97;8320101;28;20068;-61
2023/07/10 05:20:33;;;;;;;15.68;8.18;;;;;;;21.86;100.00;101081.03;8314758;28;20037;-61
2023/07/10 05:24:34;;;;;;;23.75;10.52;;;;;;;21.93;100.00;101073.69;8319317;28;20033;-61
2023/07/10 05:28:36;;;;;;;22.48;9.40;;;;;;;22.02;100.00;101077.97;8320281;28;20050;-61
2023/07/10 05:32:36;;;;;;;19.48;8.18;;;;;;;22.05;99.93;101076.75;8313164;28;20045;-62
2023/07/10 05:36:36;;;;;;;22.33;8.70;;;;;;;22.05;98.86;101088.59;8316935;28;20069;-61
2023/07/10 05:40:41;;;;;;;18.00;10.02;;;;;;;21.96;99.99;101088.97;8313960;28;20276;-61
2023/07/10 05:44:41;;;;;;;;;;;;;;;22.04;100.00;101092.41;8314003;28;20041;-62
2023/07/10 05:48:41;;;;;;;24.50;9.40;;;;;;;22.22;100.00;101090.00;8316079;28;19975;-61
2023/07/10 05:52:42;;;;;;;16.70;8.50;;;;;;;22.23;99.28;101099.13;8321868;28;20426;-61
2023/07/10 05:56:42;;;;;;;20.45;9.13;;;;;;;22.33;98.36;101097.69;8322223;28;20420;-61
2023/07/10 06:00:45;;;;;;;21.77;10.13;;;;;;;22.27;98.84;101101.25;8320400;28;20041;-61
2023/07/10 06:04:45;;;;;;;21.00;9.43;;;;;;;22.53;98.18;101103.34;8322112;28;20041;-61
2023/07/10 06:08:46;;;;;;;22.65;10.48;;;;;;;22.77;97.03;101105.59;8321199;28;20131;-61
2023/07/10 06:12:46;;;;;;;24.65;10.80;;;;;;;22.69;96.48;101103.84;8322397;28;20048;-60
2023/07/10 06:16:47;;;;;;;24.23;10.82;;;;;;;22.95;95.64;101109.50;8322150;28;20076;-61
2023/07/10 06:20:52;;;;;;;23.90;10.65;;;;;;;23.18;92.96;101107.22;8321400;28;20053;-61
2023/07/10 06:24:52;;;;;;;19.73;10.15;;;;;;;23.58;91.29;101104.59;8321387;28;20072;-60
2023/07/10 06:28:52;;;;;;;20.13;9.83;;;;;;;23.82;89.61;101102.03;8325692;28;20060;-60
2023/07/10 06:32:53;;;;;;;19.27;9.95;;;;;;;24.19;87.71;101119.91;8327273;28;20681;-60
2023/07/10 06:36:53;;;;;;;16.35;8.48;;;;;;;24.36;86.69;101118.38;8325353;28;20116;-61
2023/07/10 06:40:55;;;;;;;18.85;8.90;;;;;;;24.56;87.29;101138.56;8326548;28;20045;-61
2023/07/10 06:44:55;;;;;;;19.13;9.07;;;;;;;24.33;87.07;101135.41;8327342;28;20112;-61
2023/07/10 06:48:55;;;;;;;19.10;7.88;;;;;;;24.01;86.76;101133.53;8323789;28;20500;-61
2023/07/10 06:52:56;;;;;;;17.02;8.38;;;;;;;24.12;86.07;101135.66;8326081;28;20045;-61
2023/07/10 06:56:56;;;;;;;13.15;7.03;;;;;;;24.60;86.62;101145.34;8327468;28;20099;-61
2023/07/10 07:00:57;;;;;;;17.35;6.43;;;;;;;25.33;83.19;101142.16;8325977;28;20355;-61
2023/07/10 07:04:57;;;;;;;12.80;6.30;;;;;;;25.49;80.70;101141.63;8327344;28;20095;-61
2023/07/10 07:08:58;;;;;;;10.38;4.80;;;;;;;25.17;83.25;101148.19;8330315;28;20630;-61
2023/07/10 07:12:58;;;;;;;18.20;5.55;;;;;;;24.88;80.14;101160.63;8313662;28;20049;-61
2023/07/10 07:16:58;;;;;;;15.93;5.45;;;;;;;25.33;80.97;101147.69;8326733;28;20124;-61
2023/07/10 07:20:59;;;;;;;17.27;5.50;;;;;;;25.30;81.18;101148.09;8325871;28;20061;-60
2023/07/10 07:25:00;;;;;;;9.18;5.35;;;;;;;25.46;79.48;101158.69;8326731;28;20338;-60
2023/07/10 07:29:00;;;;;;;17.48;4.60;;;;;;;25.30;81.09;101153.63;8324784;28;20041;-61
2023/07/10 07:33:01;;;;;;;26.40;5.63;;;;;;;25.41;77.69;101154.91;8320322;28;20034;-61
2023/07/10 07:37:04;;;;;;;18.05;4.80;;;;;;;25.56;76.40;101153.53;8318149;28;20064;-61
2023/07/10 07:41:06;;;;;;;10.18;3.30;;;;;;;25.65;74.31;101152.19;8312929;28;20045;-60
2023/07/10 07:45:07;;;;;;;4.57;2.10;;;;;;;26.09;72.99;101149.34;8323200;28;20415;-60
2023/07/10 07:49:09;;;;;;;3.88;1.88;;;;;;;26.07;71.28;101157.00;8323233;28;20116;-60
2023/07/10 07:53:09;;;;;;;3.97;2.05;;;;;;;26.11;69.91;101169.38;8322778;28;20037;-60
2023/07/10 07:57:10;;;;;;;3.45;1.90;;;;;;;26.35;70.66;101154.63;8323487;28;20338;-61
2023/07/10 08:01:10;;;;;;;6.35;2.30;;;;;;;26.28;68.52;101162.16;8322272;28;20120;-61
2023/07/10 08:05:11;;;;;;;12.95;3.00;;;;;;;26.26;66.11;101161.53;8322951;28;20108;-61
2023/07/10 08:09:11;;;;;;;5.57;1.50;;;;;;;26.04;65.04;101157.47;8322781;28;20033;-61
2023/07/10 08:13:13;;;;;;;5.53;2.58;;;;;;;26.65;65.56;101161.19;8322636;28;20288;-61
2023/07/10 08:17:13;;;;;;;4.05;1.42;;;;;;;26.51;65.02;101170.69;8321871;28;20116;-60
2023/07/10 08:21:15;;;;;;;7.38;1.88;;;;;;;26.34;65.19;101175.13;8323326;28;20044;-61
2023/07/10 08:25:16;;;;;;;9.52;3.17;;;;;;;26.57;64.78;101168.94;8338563;28;20037;-61
2023/07/10 08:29:34;;;;;;;4.00;1.58;;;;;;;26.40;62.86;101163.13;8322307;28;20040;-60
2023/07/10 08:33:35;;;;;;;5.97;2.60;;;;;;;26.43;62.45;101156.25;8321917;28;20033;-60
2023/07/10 08:37:36;;;;;;;7.45;2.90;;;;;;;26.36;62.13;101159.13;8321304;28;20041;-60
2023/07/10 08:41:37;;;;;;;5.55;1.92;;;;;;;26.62;62.10;101160.78;8321277;28;20051;-60
2023/07/10 08:45:39;;;;;;;5.60;2.40;;;;;;;26.47;62.67;101158.34;8321573;28;20033;-60
2023/07/10 08:49:53;;;;;;;7.65;2.17;;;;;;;26.79;62.36;101140.53;8320968;28;20037;-61
2023/07/10 08:54:06;;;;;;;8.98;2.88;;;;;;;26.44;62.87;101149.66;8318464;28;20124;-61
2023/07/10 08:58:17;;;;;;;4.93;1.92;;;;;;;26.58;64.67;101149.28;8310128;28;20115;-60
2023/07/10 09:02:27;;;;;;;8.88;2.35;;;;;;;26.99;64.91;101153.34;8321459;28;20049;-61
2023/07/10 09:06:37;;;;;;;4.20;2.10;;;;;;;27.33;65.54;101147.16;8320461;28;20037;-60
2023/07/10 09:10:42;;;;;;;6.07;2.00;;;;;;;27.62;60.34;101151.84;8316573;28;20665;-60
2023/07/10 09:14:55;;;;;;;9.18;3.25;;;;;;;27.23;60.43;101152.38;8313853;28;20049;-60
2023/07/10 09:19:12;;;;;;;9.90;2.55;;;;;;;27.41;57.76;101144.06;8320677;28;20045;-61
2023/07/10 09:23:21;;;;;;;3.38;1.20;;;;;;;27.53;59.36;101145.78;8320845;28;20081;-61
2023/07/10 09:27:23;;;;;;;5.45;1.67;;;;;;;27.57;57.70;101152.56;8316093;28;20048;-61
2023/07/10 09:31:54;;;;;;;10.50;3.08;;;;;;;27.36;58.01;101150.31;8329652;28;20054;-61
2023/07/10 09:35:55;;;;;;;4.20;1.45;;;;;;;27.81;61.59;101150.72;8320869;28;20055;-61
2023/07/10 09:39:55;;;;;;;4.13;1.48;;;;;;;28.15;57.46;101141.63;8311818;28;20037;-61
2023/07/10 09:44:01;;;;;;;6.50;1.58;;;;;;;28.49;58.91;101149.16;8320756;28;20041;-61
2023/07/10 09:48:10;;;;;;;7.38;2.10;;;;;;;28.43;56.01;101158.47;8319388;28;20080;-61
2023/07/10 09:52:20;;;;;;;8.77;1.58;;;;;;;28.16;57.43;101149.72;8320721;28;20041;-61
2023/07/10 09:56:35;;;;;;;5.57;1.65;;;;;;;28.18;56.88;101141.16;8317484;28;20091;-61
2023/07/10 10:00:43;;;;;;;6.60;1.92;;;;;;;27.98;55.66;101147.03;8315711;28;20261;-61
2023/07/10 10:04:44;;;;;;;8.85;2.13;;;;;;;28.90;52.99;101140.66;8325750;28;20413;-61
2023/07/10 10:08:46;;;;;;;41.88;7.43;;;;;;;29.91;53.08;101138.84;8326451;28;20106;-61
2023/07/10 10:12:52;;;;;;;8.50;2.60;;;;;;;29.39;52.30;101134.47;8326780;28;20045;-61
2023/07/10 10:16:57;;;;;;;3.40;1.23;;;;;;;31.92;49.03;101138.91;8326400;28;20041;-61
2023/07/10 10:21:00;;;;;;;2.55;1.00;;;;;;;32.42;47.00;101135.72;8325938;28;20049;-61
2023/07/10 10:25:00;;;;;;;2.25;1.13;;;;;;;33.93;47.34;101138.94;8323666;28;20461;-61
2023/07/10 10:29:29;;;;;;;5.05;1.02;;;;;;;33.58;45.66;101136.06;8323531;28;20231;-61
2023/07/10 10:33:42;;;;;;;2.38;0.85;;;;;;;34.00;45.08;101143.44;8323636;28;20518;-60
2023/07/10 10:38:12;;;;;;;4.93;0.93;;;;;;;34.18;45.36;101140.09;8321633;28;20581;-61
2023/07/10 10:42:25;;;;;;;4.82;1.27;;;;;;;34.09;45.91;101147.38;8322390;28;20507;-61
2023/07/10 10:46:42;;;;;;;3.20;1.00;;;;;;;34.63;44.61;101140.06;8324521;28;20529;-61
2023/07/10 10:51:09;;;;;;;2.25;1.02;;;;;;;35.24;44.43;101128.34;8321671;28;20427;-61
2023/07/10 10:55:49;;;;;;;6.35;1.60;;;;;;;34.74;44.49;101125.72;8324968;28;20071;-60
2023/07/10 11:00:21;;;;;;;16.25;2.33;;;;;;;35.11;43.23;101125.31;8320392;28;20048;-61
2023/07/10 11:04:33;;;;;;;2.40;1.05;;;;;;;35.47;42.92;101121.25;8321655;28;20456;-61
2023/07/10 11:08:45;;;;;;;3.28;0.90;;;;;;;36.34;41.81;101126.81;8324342;28;20041;-61
2023/07/10 11:12:46;;;;;;;5.23;1.43;;;;;;;36.19;42.88;101124.09;8323625;28;20164;-61
2023/07/10 11:16:47;;;;;;;5.47;2.08;;;;;;;34.94;43.55;101117.22;8324614;28;20179;-61
2023/07/10 11:20:48;;;;;;;7.35;1.85;;;;;;;34.93;43.36;101121.19;8324511;28;20316;-62
2023/07/10 11:24:51;;;;;;;7.03;1.60;;;;;;;35.07;44.50;101115.78;8321961;28;20399;-61
2023/07/10 11:28:58;;;;;;;8.30;2.30;;;;;;;33.86;45.05;101104.69;8323642;28;20403;-61
2023/07/10 11:33:19;;;;;;;5.60;2.03;;;;;;;34.45;45.32;101106.97;8324283;28;20052;-61
2023/07/10 11:37:50;;;;;;;6.75;1.63;;;;;;;34.59;46.16;101105.22;8319602;28;20522;-61
2023/07/10 11:46:16;;;;;;;8.25;1.63;;;;;;;32.02;48.46;101102.63;8405021;27;20403;-61
2023/07/10 11:50:24;;;;;;;7.10;1.42;;;;;;;33.56;46.98;101101.81;8402383;27;20025;-61
2023/07/10 11:54:51;;;;;;;5.28;1.20;;;;;;;34.53;45.62;101103.56;8399329;27;20098;-61
2023/07/10 11:58:51;;;;;;;8.50;1.50;;;;;;;35.10;42.87;101110.41;8396404;27;20066;-61
2023/07/10 12:02:56;;;;;;;3.77;1.30;;;;;;;35.32;42.56;101118.47;8396487;27;20215;-61
2023/07/10 12:06:57;;;;;;;4.22;0.90;;;;;;;35.24;43.34;101111.47;8398117;27;20313;-61
2023/07/10 12:10:59;;;;;;;3.28;1.00;;;;;;;36.11;42.79;101113.47;8396292;27;20044;-61
2023/07/10 12:15:02;;;;;;;11.10;2.58;;;;;;;34.65;42.63;101101.28;8398403;27;20041;-61
2023/07/10 12:19:11;;;;;;;8.30;1.75;;;;;;;31.63;47.57;101092.72;8428837;27;20041;-61
2023/07/10 12:23:13;;;;;;;3.42;0.95;;;;;;;30.87;50.55;101093.78;8395010;27;20079;-61
2023/07/10 12:27:14;;;;;;;4.80;1.58;;;;;;;29.94;49.32;101088.13;8392546;27;20491;-62
2023/07/10 12:31:14;;;;;;;6.22;1.95;;;;;;;29.55;51.62;101077.91;8390618;27;20394;-61
2023/07/10 12:39:48;;;;;;;8.45;1.92;;;;;;;29.51;50.10;101076.72;8392189;27;20482;-62
2023/07/10 12:43:52;;;;;;;5.28;1.35;;;;;;;29.50;49.89;101069.47;8380714;27;20036;-62
2023/07/10 12:47:59;;;;;;;3.92;0.90;;;;;;;29.84;51.01;101065.66;8381723;28;20040;-62
2023/07/10 12:52:04;;;;;;;3.90;1.60;;;;;;;29.82;50.09;101059.47;8380594;27;20072;-61
2023/07/10 12:56:21;;;;;;;8.13;1.45;;;;;;;29.55;48.38;101054.78;8382697;27;20170;-61
2023/07/10 13:00:39;;;;;;;6.35;1.60;;;;;;;29.45;50.12;101054.59;8374083;27;20051;-62
2023/07/10 13:04:48;;;;;;;3.67;1.45;;;;;;;29.26;50.25;101050.31;8379900;28;20029;-61
2023/07/10 13:08:49;;;;;;;2.88;1.10;;;;;;;29.34;53.17;101059.16;8374563;27;20113;-61
2023/07/10 13:12:52;;;;;;;7.15;1.70;;;;;;;29.40;48.12;101052.53;8384369;27;20052;-61
2023/07/10 13:16:52;;;;;;;3.10;1.00;;;;;;;29.73;51.46;101051.78;8380311;28;20037;-62
2023/07/10 13:20:53;;;;;;;3.03;1.40;;;;;;;29.73;50.04;101047.03;8380898;27;20052;-62
2023/07/10 13:24:53;;;;;;;4.00;1.13;;;;;;;30.16;50.24;101047.19;8378923;28;20056;-61
2023/07/10 13:28:55;;;;;;;5.77;1.63;;;;;;;29.70;49.29;101047.56;8411473;27;20443;-61
2023/07/10 13:32:55;;;;;;;3.13;1.48;;;;;;;29.34;50.75;101042.44;8375461;28;20744;-61
2023/07/10 13:36:56;;;;;;;5.50;1.60;;;;;;;29.54;50.54;101036.34;8378091;27;20045;-61
2023/07/10 13:40:56;;;;;;;5.00;1.43;;;;;;;29.54;51.22;101017.69;8381476;27;20309;-61
2023/07/10 13:44:57;;;;;;;5.70;1.67;;;;;;;29.60;49.05;101041.78;8339871;28;20334;-61
2023/07/10 13:49:01;;;;;;;4.65;2.03;;;;;;;29.56;49.86;101035.03;8379334;27;20062;-61
2023/07/10 13:53:02;;;;;;;7.20;1.15;;;;;;;29.37;49.45;101030.78;8358151;28;20036;-64
2023/07/10 13:57:14;;;;;;;3.90;1.23;;;;;;;29.83;51.29;101036.09;8357724;28;20037;-63
2023/07/10 14:01:15;;;;;;;2.83;0.85;;;;;;;29.32;49.47;101030.69;8353200;28;20048;-64
2023/07/10 14:05:16;;;;;;;5.25;1.02;;;;;;;29.51;50.19;101032.13;8353621;28;20033;-63
2023/07/10 14:09:19;;;;;;;3.80;0.98;;;;;;;29.50;49.37;101036.03;8356118;28;20040;-63
2023/07/10 14:13:20;;;;;;;6.28;1.00;;;;;;;29.23;49.39;101037.75;8356379;28;20064;-63
2023/07/10 14:17:26;;;;;;;2.78;0.95;;;;;;;28.83;49.93;101034.13;8355192;28;20049;-63
2023/07/10 14:21:27;;;;;;;2.42;0.85;;;;;;;28.95;50.13;101029.38;8355221;28;20496;-63
2023/07/10 14:25:27;;;;;;;5.15;1.23;;;;;;;28.89;50.02;101033.16;8355901;28;20497;-63
2023/07/10 14:29:28;;;;;;;4.10;1.10;;;;;;;29.00;50.39;101023.06;8340515;28;20492;-56
2023/07/10 14:33:28;;;;;;;3.58;0.90;;;;;;;29.28;49.07;101021.16;8352691;28;20421;-62
2023/07/10 14:37:29;;;;;;;3.77;1.20;;;;;;;29.32;49.55;101027.88;8353462;28;20133;-62
2023/07/10 14:41:29;;;;;;;13.63;1.83;;;;;;;29.48;49.54;101024.28;8355506;28;20701;-63
2023/07/10 14:45:30;;;;;;;21.45;4.38;;;;;;;29.35;49.53;101015.38;8355013;28;20033;-62
2023/07/10 14:49:30;;;;;;;5.22;1.30;;;;;;;29.35;49.14;101007.88;8354358;28;20048;-63
2023/07/10 14:53:31;;;;;;;3.03;0.70;;;;;;;29.14;50.63;100996.59;8357306;28;20052;-62
2023/07/10 14:57:34;;;;;;;3.90;1.20;;;;;;;29.45;49.80;101012.78;8353706;28;20037;-62
2023/07/10 15:01:34;;;;;;;3.28;1.00;;;;;;;29.01;49.14;101000.53;8359308;28;20050;-62
2023/07/10 15:05:35;;;;;;;4.17;1.30;;;;;;;29.34;50.47;100991.41;8340139;28;20097;-62
2023/07/10 15:09:35;;;;;;;2.80;1.08;;;;;;;29.15;49.04;100990.78;8355168;28;20081;-62
2023/07/10 15:13:36;;;;;;;11.13;3.00;;;;;;;29.20;50.44;100985.31;8350710;28;20041;-62
2023/07/10 15:17:36;;;;;;;5.35;1.48;;;;;;;29.37;50.46;100986.19;8353316;28;20280;-62
2023/07/10 15:21:37;;;;;;;4.18;0.90;;;;;;;29.38;49.58;100984.22;8349583;28;20099;-62
2023/07/10 15:25:37;;;;;;;4.15;1.27;;;;;;;29.38;49.27;100982.31;8355143;28;20434;-62
2023/07/10 15:29:38;;;;;;;2.60;0.97;;;;;;;29.24;48.49;100978.13;8348891;28;20060;-62
2023/07/10 15:33:41;;;;;;;1.98;0.90;;;;;;;28.98;49.45;100969.53;8348674;28;20283;-62
2023/07/10 15:37:43;;;;;;;2.53;0.80;;;;;;;29.07;49.32;100963.34;8354099;28;20483;-62
2023/07/10 15:41:44;;;;;;;5.78;0.85;;;;;;;29.05;49.19;100959.97;8351691;28;20040;-63
2023/07/10 15:45:44;;;;;;;5.78;0.93;;;;;;;28.83;49.41;100969.25;8348616;28;20037;-58
2023/07/10 15:49:45;;;;;;;1.70;0.93;;;;;;;28.96;49.07;100955.00;8349108;28;20036;-64
2023/07/10 15:53:46;;;;;;;3.15;1.20;;;;;;;29.09;50.00;100954.75;8349915;28;20040;-65
2023/07/10 15:57:48;;;;;;;4.55;1.15;;;;;;;28.92;48.98;100951.91;8353841;28;20049;-65
2023/07/10 16:01:50;;;;;;;4.68;1.15;;;;;;;29.07;50.31;100960.56;8365824;28;20087;-65
2023/07/10 16:05:53;;;;;;;3.38;1.05;;;;;;;29.00;48.32;100940.34;8378305;28;20040;-65
2023/07/10 16:09:53;;;;;;;4.53;0.80;;;;;;;29.11;49.40;100935.81;8380942;28;20048;-65
2023/07/10 16:13:54;;;;;;;1.97;0.93;;;;;;;29.13;48.80;100948.44;8372132;28;20079;-65
2023/07/10 16:17:56;;;;;;;2.77;1.03;;;;;;;29.02;49.63;100938.16;8356040;28;20655;-65
2023/07/10 16:21:56;;;;;;;3.35;0.90;;;;;;;29.03;48.91;100939.84;8345541;28;20894;-65
2023/07/10 16:25:57;;;;;;;2.57;0.80;;;;;;;29.14;49.29;100938.13;8351202;28;20408;-66
2023/07/10 16:29:57;;;;;;;2.45;1.20;;;;;;;28.98;48.89;100930.56;8349094;28;20824;-65
2023/07/10 16:33:57;;;;;;;2.10;0.70;;;;;;;28.93;51.20;100922.94;8347754;28;20045;-65
2023/07/10 16:37:59;;;;;;;3.40;0.90;;;;;;;28.96;49.56;100918.81;8336326;28;20482;-65
2023/07/10 16:42:00;;;;;;;3.67;0.90;;;;;;;28.97;49.73;100913.00;8347950;28;20705;-65
2023/07/10 16:46:01;;;;;;;2.67;0.90;;;;;;;28.64;49.87;100910.16;8347171;28;20040;-65
2023/07/10 16:50:02;;;;;;;1.92;0.80;;;;;;;28.79;50.39;100913.25;8349192;28;20072;-65
2023/07/10 16:54:03;;;;;;;3.78;1.02;;;;;;;28.73;50.24;100919.81;8350686;28;20045;-65
2023/07/10 16:58:04;;;;;;;6.03;1.17;;;;;;;28.72;50.06;100914.50;8348631;28;20396;-65
2023/07/10 17:02:21;;;;;;;3.63;1.15;;;;;;;28.59;50.07;100901.69;8342278;28;20036;-65
2023/07/10 17:06:25;;;;;;;2.53;1.38;;;;;;;28.54;50.35;100908.00;8348766;28;20041;-65
2023/07/10 17:10:26;;;;;;;4.15;0.88;;;;;;;28.59;50.33;100904.50;8347032;28;20030;-66
2023/07/10 17:14:26;;;;;;;3.40;1.17;;;;;;;28.42;50.64;100892.44;8350855;28;20537;-65
2023/07/10 17:18:29;;;;;;;1.83;1.00;;;;;;;28.29;50.76;100884.38;8339860;28;20403;-65
2023/07/10 17:22:33;;;;;;;5.05;1.40;;;;;;;28.43;50.59;100885.78;8349768;28;20274;-65
2023/07/10 17:26:33;;;;;;;3.75;1.08;;;;;;;28.52;50.72;100887.09;8337103;28;20036;-63
2023/07/10 17:30:34;;;;;;;4.90;1.65;;;;;;;28.52;50.44;100878.75;8347071;28;20118;-63
2023/07/10 17:34:34;;;;;;;2.45;1.20;;;;;;;28.62;50.12;100876.16;8345357;28;20113;-65
2023/07/10 17:38:36;;;;;;;8.07;1.30;;;;;;;28.58;50.70;100875.81;8329328;28;20065;-64
2023/07/10 17:42:37;;;;;;;1.98;1.00;;;;;;;28.50;50.39;100872.59;8348402;28;20343;-65
2023/07/10 17:46:37;;;;;;;6.07;0.95;;;;;;;28.41;50.78;100874.03;8353626;28;20033;-65
2023/07/10 17:50:38;;;;;;;2.77;0.97;;;;;;;28.38;50.98;100871.75;8349796;28;20045;-65
2023/07/10 17:54:38;;;;;;;2.80;0.87;;;;;;;28.30;51.21;100886.06;8354003;28;20291;-65
2023/07/10 17:58:39;;;;;;;4.10;1.15;;;;;;;28.27;51.88;100883.78;8352681;28;20288;-65
2023/07/10 18:02:44;;;;;;;4.87;1.40;;;;;;;28.15;53.04;100885.75;8342692;28;20064;-65
2023/07/10 18:06:45;;;;;;;4.00;1.33;;;;;;;28.02;53.39;100881.31;8345027;28;20515;-65
2023/07/10 18:10:48;;;;;;;3.80;1.20;;;;;;;27.82;54.07;100882.78;8348447;28;20037;-65
2023/07/10 18:14:49;;;;;;;3.03;1.50;;;;;;;27.74;53.76;100877.56;8349501;28;20442;-65
2023/07/10 18:18:49;;;;;;;4.43;0.90;;;;;;;27.70;54.13;100881.94;8345129;28;20142;-65
2023/07/10 18:22:50;;;;;;;4.05;1.23;;;;;;;27.57;54.74;100882.19;8349133;28;20041;-65
2023/07/10 18:26:51;;;;;;;1.60;0.90;;;;;;;27.55;54.51;100889.91;8349767;28;20028;-65
2023/07/10 18:30:55;;;;;;;5.00;1.30;;;;;;;27.43;54.47;100881.59;8342411;28;20048;-65
2023/07/10 18:34:55;;;;;;;;;;;;;;;27.37;55.01;100881.69;8348410;28;20080;-65
2023/07/10 18:38:55;;;;;;;3.30;1.23;;;;;;;27.39;55.01;100879.53;8344745;28;19980;-65
2023/07/10 18:42:56;;;;;;;3.20;1.13;;;;;;;27.21;55.45;100876.84;8349099;28;20630;-65
2023/07/10 18:46:56;;;;;;;2.92;0.80;;;;;;;27.21;55.45;100882.41;8348658;28;20053;-65
2023/07/10 18:51:01;;;;;;;6.07;1.60;;;;;;;27.19;55.56;100879.00;8344378;28;20140;-65